createdAt,value
2022-10-13T00:00:51.583Z,11.79
2022-10-13T00:01:51.342Z,11.80
2022-10-13T00:02:51.429Z,11.81
2022-10-13T00:03:51.331Z,11.81
2022-10-13T00:04:51.420Z,11.81
2022-10-13T00:05:51.283Z,11.81
2022-10-13T00:06:51.411Z,11.83
2022-10-13T00:07:51.252Z,11.82
2022-10-13T00:08:52.360Z,11.82
2022-10-13T00:09:51.232Z,11.81
2022-10-13T00:10:51.332Z,11.80
2022-10-13T00:11:51.211Z,11.80
2022-10-13T00:12:51.293Z,11.79
2022-10-13T00:13:51.211Z,11.79
2022-10-13T00:14:51.241Z,11.77
2022-10-13T00:15:51.160Z,11.75
2022-10-13T00:16:51.342Z,11.72
2022-10-13T00:17:51.161Z,11.71
2022-10-13T00:18:51.223Z,11.69
2022-10-13T00:19:51.104Z,11.68
2022-10-13T00:20:51.251Z,11.66
2022-10-13T00:21:51.077Z,11.65
2022-10-13T00:22:51.141Z,11.62
2022-10-13T00:23:51.052Z,11.57
2022-10-13T00:24:51.131Z,11.53
2022-10-13T00:25:51.022Z,11.49
2022-10-13T00:26:52.181Z,11.46
2022-10-13T00:27:51.020Z,11.43
2022-10-13T00:28:52.871Z,11.39
2022-10-13T00:29:50.961Z,11.38
2022-10-13T00:30:51.029Z,11.38
2022-10-13T00:31:50.942Z,11.38
2022-10-13T00:32:51.073Z,11.39
2022-10-13T00:33:50.921Z,11.39
2022-10-13T00:34:51.051Z,11.40
2022-10-13T00:35:50.881Z,11.42
2022-10-13T00:36:51.044Z,11.43
2022-10-13T00:37:50.862Z,11.44
2022-10-13T00:38:50.972Z,11.45
2022-10-13T00:39:50.841Z,11.46
2022-10-13T00:40:50.958Z,11.46
2022-10-13T00:41:50.801Z,11.46
2022-10-13T00:42:50.941Z,11.47
2022-10-13T00:43:50.779Z,11.47
2022-10-13T00:44:50.881Z,11.46
2022-10-13T00:45:50.756Z,11.47
2022-10-13T00:46:50.964Z,11.47
2022-10-13T00:47:50.725Z,11.49
2022-10-13T00:48:50.750Z,11.51
2022-10-13T00:49:50.694Z,11.51
2022-10-13T00:50:50.782Z,11.51
2022-10-13T00:51:50.669Z,11.52
2022-10-13T00:52:50.771Z,11.54
2022-10-13T00:53:50.642Z,11.55
2022-10-13T00:54:51.780Z,11.56
2022-10-13T00:55:50.617Z,11.56
2022-10-13T00:56:50.800Z,11.57
2022-10-13T00:57:50.595Z,11.55
2022-10-13T00:58:50.679Z,11.53
2022-10-13T00:59:50.562Z,11.51
2022-10-13T01:00:50.739Z,11.50
2022-10-13T01:01:50.541Z,11.48
2022-10-13T01:03:20.353Z,11.45
2022-10-13T01:03:56.757Z,11.41
2022-10-13T01:04:53.127Z,11.37
2022-10-13T01:05:53.314Z,11.33
2022-10-13T01:06:53.327Z,11.31
2022-10-13T01:07:55.018Z,11.29
2022-10-13T01:08:52.659Z,11.27
2022-10-13T01:10:01.037Z,11.24
2022-10-13T01:10:54.513Z,11.21
2022-10-13T01:11:50.394Z,11.19
2022-10-13T01:12:50.516Z,11.17
2022-10-13T01:13:50.372Z,11.15
2022-10-13T01:14:50.412Z,11.13
2022-10-13T01:15:50.376Z,11.11
2022-10-13T01:16:50.483Z,11.11
2022-10-13T01:17:50.322Z,11.09
2022-10-13T01:18:51.453Z,11.07
2022-10-13T01:19:50.286Z,11.05
2022-10-13T01:20:50.462Z,11.03
2022-10-13T01:21:50.302Z,11.01
2022-10-13T01:22:50.285Z,10.99
2022-10-13T01:23:50.238Z,10.98
2022-10-13T01:25:11.312Z,10.98
2022-10-13T01:25:50.221Z,10.95
2022-10-13T01:26:50.364Z,10.92
2022-10-13T01:27:50.212Z,10.91
2022-10-13T01:28:50.384Z,10.90
2022-10-13T01:29:50.161Z,10.88
2022-10-13T01:30:50.246Z,10.86
2022-10-13T01:31:50.134Z,10.83
2022-10-13T01:32:50.180Z,10.80
2022-10-13T01:33:50.142Z,10.77
2022-10-13T01:34:50.205Z,10.74
2022-10-13T01:35:50.082Z,10.70
2022-10-13T01:36:51.174Z,10.67
2022-10-13T01:37:50.053Z,10.64
2022-10-13T01:38:50.182Z,10.62
2022-10-13T01:39:50.060Z,10.60
2022-10-13T01:40:50.123Z,10.58
2022-10-13T01:41:50.002Z,10.55
2022-10-13T01:42:50.042Z,10.51
2022-10-13T01:43:49.973Z,10.48
2022-10-13T01:44:50.082Z,10.44
2022-10-13T01:45:49.983Z,10.41
2022-10-13T01:46:50.120Z,10.39
2022-10-13T01:47:49.923Z,10.38
2022-10-13T01:48:52.149Z,10.36
2022-10-13T01:49:49.892Z,10.34
2022-10-13T01:50:49.997Z,10.31
2022-10-13T01:51:49.883Z,10.30
2022-10-13T01:52:49.921Z,10.30
2022-10-13T01:53:49.839Z,10.28
2022-10-13T01:54:49.963Z,10.27
2022-10-13T01:55:49.813Z,10.27
2022-10-13T01:56:49.995Z,10.25
2022-10-13T01:57:49.813Z,10.23
2022-10-13T01:59:10.913Z,10.21
2022-10-13T01:59:49.754Z,10.20
2022-10-13T02:00:49.873Z,10.19
2022-10-13T02:01:49.740Z,10.17
2022-10-13T02:02:49.792Z,10.16
2022-10-13T02:03:49.732Z,10.15
2022-10-13T02:04:50.862Z,10.14
2022-10-13T02:05:49.688Z,10.13
2022-10-13T02:06:49.873Z,10.11
2022-10-13T02:07:49.655Z,10.09
2022-10-13T02:08:49.704Z,10.06
2022-10-13T02:09:49.643Z,10.02
2022-10-13T02:10:51.693Z,9.98
2022-10-13T02:11:49.594Z,9.96
2022-10-13T02:12:50.699Z,9.93
2022-10-13T02:13:49.563Z,9.90
2022-10-13T02:14:49.711Z,9.86
2022-10-13T02:15:49.571Z,9.83
2022-10-13T02:16:49.642Z,9.81
2022-10-13T02:17:49.512Z,9.79
2022-10-13T02:18:49.578Z,9.77
2022-10-13T02:19:49.501Z,9.74
2022-10-13T02:20:50.644Z,9.72
2022-10-13T02:21:49.491Z,9.69
2022-10-13T02:22:49.552Z,9.67
2022-10-13T02:23:49.451Z,9.66
2022-10-13T02:24:49.581Z,9.65
2022-10-13T02:25:49.403Z,9.65
2022-10-13T02:26:49.521Z,9.65
2022-10-13T02:27:49.421Z,9.64
2022-10-13T02:28:49.511Z,9.64
2022-10-13T02:29:49.352Z,9.63
2022-10-13T02:30:49.493Z,9.63
2022-10-13T02:31:49.322Z,9.61
2022-10-13T02:32:50.451Z,9.59
2022-10-13T02:33:49.326Z,9.58
2022-10-13T02:34:49.462Z,9.59
2022-10-13T02:35:49.277Z,9.58
2022-10-13T02:36:49.403Z,9.57
2022-10-13T02:37:49.256Z,9.54
2022-10-13T02:39:11.391Z,9.52
2022-10-13T02:39:49.223Z,9.52
2022-10-13T02:40:49.371Z,9.52
2022-10-13T02:41:49.202Z,9.51
2022-10-13T02:42:49.310Z,9.50
2022-10-13T02:43:49.172Z,9.48
2022-10-13T02:44:49.301Z,9.46
2022-10-13T02:45:49.141Z,9.44
2022-10-13T02:46:49.281Z,9.42
2022-10-13T02:47:49.204Z,9.41
2022-10-13T02:48:49.212Z,9.39
2022-10-13T02:49:49.079Z,9.37
2022-10-13T02:50:49.194Z,9.37
2022-10-13T02:51:49.062Z,9.37
2022-10-13T02:52:49.182Z,9.37
2022-10-13T02:53:49.042Z,9.37
2022-10-13T02:54:50.142Z,9.35
2022-10-13T02:55:49.010Z,9.32
2022-10-13T02:56:49.102Z,9.30
2022-10-13T02:57:48.973Z,9.29
2022-10-13T02:58:49.103Z,9.29
2022-10-13T02:59:48.945Z,9.29
2022-10-13T03:00:49.170Z,9.27
2022-10-13T03:01:48.922Z,9.25
2022-10-13T03:02:52.286Z,9.24
2022-10-13T03:03:48.933Z,9.23
2022-10-13T03:04:48.985Z,9.22
2022-10-13T03:05:48.881Z,9.19
2022-10-13T03:06:48.980Z,9.17
2022-10-13T03:07:48.831Z,9.15
2022-10-13T03:08:48.945Z,9.14
2022-10-13T03:09:48.812Z,9.15
2022-10-13T03:10:49.001Z,9.15
2022-10-13T03:11:48.782Z,9.14
2022-10-13T03:12:49.872Z,9.13
2022-10-13T03:13:48.751Z,9.12
2022-10-13T03:14:48.826Z,9.10
2022-10-13T03:15:48.712Z,9.07
2022-10-13T03:16:48.822Z,9.07
2022-10-13T03:17:48.711Z,9.09
2022-10-13T03:18:48.855Z,9.10
2022-10-13T03:19:48.673Z,9.10
2022-10-13T03:20:48.842Z,9.08
2022-10-13T03:21:48.659Z,9.04
2022-10-13T03:22:49.905Z,9.05
2022-10-13T03:23:48.623Z,9.06
2022-10-13T03:24:48.740Z,9.06
2022-10-13T03:25:48.601Z,9.06
2022-10-13T03:26:48.739Z,9.06
2022-10-13T03:27:48.580Z,9.03
2022-10-13T03:28:48.756Z,9.01
2022-10-13T03:29:48.541Z,9.00
2022-10-13T03:30:48.652Z,9.00
2022-10-13T03:31:48.511Z,9.00
2022-10-13T03:32:48.639Z,9.00
2022-10-13T03:33:48.484Z,8.99
2022-10-13T03:34:48.621Z,8.96
2022-10-13T03:35:48.462Z,8.93
2022-10-13T03:36:48.629Z,8.93
2022-10-13T03:37:48.432Z,8.92
2022-10-13T03:38:48.651Z,8.92
2022-10-13T03:39:48.393Z,8.92
2022-10-13T03:40:48.428Z,8.92
2022-10-13T03:41:48.380Z,8.92
2022-10-13T03:42:48.476Z,8.91
2022-10-13T03:43:48.350Z,8.90
2022-10-13T03:44:52.382Z,8.88
2022-10-13T03:45:49.319Z,8.85
2022-10-13T03:46:48.438Z,8.83
2022-10-13T03:47:48.308Z,8.82
2022-10-13T03:48:48.489Z,8.81
2022-10-13T03:49:48.288Z,8.81
2022-10-13T03:50:48.352Z,8.80
2022-10-13T03:51:48.242Z,8.79
2022-10-13T03:52:48.344Z,8.78
2022-10-13T03:53:48.226Z,8.76
2022-10-13T03:54:48.382Z,8.75
2022-10-13T03:55:48.211Z,8.76
2022-10-13T03:56:48.363Z,8.77
2022-10-13T03:57:48.161Z,8.78
2022-10-13T03:58:48.241Z,8.80
2022-10-13T03:59:48.131Z,8.82
2022-10-13T04:00:48.153Z,8.84
2022-10-13T04:01:48.126Z,8.86
2022-10-13T04:02:48.270Z,8.87
2022-10-13T04:03:48.090Z,8.88
2022-10-13T04:04:48.252Z,8.90
2022-10-13T04:05:48.051Z,8.91
2022-10-13T04:06:48.181Z,8.92
2022-10-13T04:07:48.024Z,8.93
2022-10-13T04:08:48.068Z,8.93
2022-10-13T04:09:47.999Z,8.92
2022-10-13T04:10:48.051Z,8.92
2022-10-13T04:11:47.971Z,8.91
2022-10-13T04:12:49.110Z,8.89
2022-10-13T04:13:47.950Z,8.88
2022-10-13T04:14:48.083Z,8.87
2022-10-13T04:15:47.920Z,8.87
2022-10-13T04:16:47.965Z,8.87
2022-10-13T04:17:47.900Z,8.86
2022-10-13T04:18:49.991Z,8.86
2022-10-13T04:19:47.870Z,8.85
2022-10-13T04:20:47.980Z,8.84
2022-10-13T04:21:47.850Z,8.84
2022-10-13T04:22:47.971Z,8.85
2022-10-13T04:23:47.809Z,8.85
2022-10-13T04:24:48.019Z,8.85
2022-10-13T04:25:47.790Z,8.84
2022-10-13T04:26:47.883Z,8.83
2022-10-13T04:27:47.770Z,8.81
2022-10-13T04:28:47.944Z,8.81
2022-10-13T04:29:47.740Z,8.81
2022-10-13T04:30:49.606Z,8.81
2022-10-13T04:31:47.710Z,8.81
2022-10-13T04:32:47.891Z,8.81
2022-10-13T04:33:47.682Z,8.81
2022-10-13T04:34:47.879Z,8.80
2022-10-13T04:35:47.664Z,8.80
2022-10-13T04:36:47.711Z,8.80
2022-10-13T04:37:47.630Z,8.80
2022-10-13T04:38:47.800Z,8.80
2022-10-13T04:39:47.612Z,8.79
2022-10-13T04:40:47.681Z,8.78
2022-10-13T04:41:47.583Z,8.78
2022-10-13T04:42:47.729Z,8.79
2022-10-13T04:43:47.553Z,8.80
2022-10-13T04:44:47.610Z,8.81
2022-10-13T04:45:47.530Z,8.83
2022-10-13T04:46:47.589Z,8.84
2022-10-13T04:47:47.500Z,8.87
2022-10-13T04:48:47.630Z,8.89
2022-10-13T04:49:47.468Z,8.91
2022-10-13T04:50:47.678Z,8.92
2022-10-13T04:51:47.448Z,8.95
2022-10-13T04:52:48.624Z,8.99
2022-10-13T04:53:47.420Z,9.02
2022-10-13T04:54:47.536Z,9.05
2022-10-13T04:55:47.391Z,9.08
2022-10-13T04:56:47.519Z,9.12
2022-10-13T04:57:47.372Z,9.15
2022-10-13T04:58:47.500Z,9.17
2022-10-13T04:59:47.357Z,9.20
2022-10-13T05:00:47.496Z,9.23
2022-10-13T05:01:47.319Z,9.26
2022-10-13T05:02:47.526Z,9.29
2022-10-13T05:03:47.290Z,9.33
2022-10-13T05:04:47.407Z,9.37
2022-10-13T05:05:47.258Z,9.40
2022-10-13T05:07:16.013Z,9.42
2022-10-13T05:07:48.286Z,9.45
2022-10-13T05:08:47.370Z,9.47
2022-10-13T05:09:47.209Z,9.48
2022-10-13T05:10:47.308Z,9.49
2022-10-13T05:11:47.179Z,9.51
2022-10-13T05:12:47.250Z,9.53
2022-10-13T05:13:47.208Z,9.58
2022-10-13T05:14:47.243Z,9.61
2022-10-13T05:15:47.129Z,9.64
2022-10-13T05:16:47.221Z,9.66
2022-10-13T05:17:47.100Z,9.69
2022-10-13T05:18:47.258Z,9.73
2022-10-13T05:19:47.114Z,9.76
2022-10-13T05:20:47.193Z,9.78
2022-10-13T05:21:47.048Z,9.79
2022-10-13T05:22:47.118Z,9.80
2022-10-13T05:23:47.026Z,9.82
2022-10-13T05:24:47.159Z,9.86
2022-10-13T05:25:47.058Z,9.89
2022-10-13T05:26:47.100Z,9.91
2022-10-13T05:27:46.968Z,9.92
2022-10-13T05:28:47.193Z,9.94
2022-10-13T05:29:46.946Z,9.95
2022-10-13T05:30:46.960Z,9.96
2022-10-13T05:31:46.939Z,9.97
2022-10-13T05:32:51.498Z,9.99
2022-10-13T05:33:47.890Z,10.00
2022-10-13T05:34:47.961Z,9.99
2022-10-13T05:35:46.860Z,10.01
2022-10-13T05:36:46.987Z,10.03
2022-10-13T05:37:46.859Z,10.03
2022-10-13T05:38:47.021Z,10.03
2022-10-13T05:39:48.892Z,10.05
2022-10-13T05:40:46.839Z,10.07
2022-10-13T05:41:46.769Z,10.09
2022-10-13T05:42:46.880Z,10.12
2022-10-13T05:43:46.787Z,10.12
2022-10-13T05:44:46.823Z,10.13
2022-10-13T05:45:46.710Z,10.14
2022-10-13T05:46:46.848Z,10.17
2022-10-13T05:47:46.689Z,10.20
2022-10-13T05:48:47.700Z,10.22
2022-10-13T05:49:46.678Z,10.25
2022-10-13T05:50:46.719Z,10.27
2022-10-13T05:51:46.628Z,10.27
2022-10-13T05:52:46.757Z,10.28
2022-10-13T05:53:50.273Z,10.30
2022-10-13T05:54:47.636Z,10.33
2022-10-13T05:55:46.620Z,10.35
2022-10-13T05:56:46.570Z,10.37
2022-10-13T05:57:46.687Z,10.39
2022-10-13T05:58:46.597Z,10.42
2022-10-13T05:59:46.798Z,10.44
2022-10-13T06:00:46.537Z,10.45
2022-10-13T06:01:47.745Z,10.47
2022-10-13T06:02:46.488Z,10.49
2022-10-13T06:03:47.518Z,10.51
2022-10-13T06:04:46.459Z,10.51
2022-10-13T06:05:46.531Z,10.52
2022-10-13T06:06:46.461Z,10.54
2022-10-13T06:07:46.527Z,10.57
2022-10-13T06:08:46.409Z,10.59
2022-10-13T06:09:46.508Z,10.60
2022-10-13T06:10:46.381Z,10.60
2022-10-13T06:11:46.439Z,10.60
2022-10-13T06:12:46.377Z,10.62
2022-10-13T06:13:46.489Z,10.63
2022-10-13T06:14:46.328Z,10.65
2022-10-13T06:15:46.412Z,10.68
2022-10-13T06:16:46.299Z,10.71
2022-10-13T06:17:46.448Z,10.73
2022-10-13T06:18:46.289Z,10.74
2022-10-13T06:19:46.384Z,10.77
2022-10-13T06:20:46.248Z,10.81
2022-10-13T06:21:46.317Z,10.85
2022-10-13T06:22:46.218Z,10.87
2022-10-13T06:23:46.378Z,10.87
2022-10-13T06:24:46.209Z,10.89
2022-10-13T06:25:47.249Z,10.91
2022-10-13T06:26:46.158Z,10.93
2022-10-13T06:27:46.339Z,10.93
2022-10-13T06:28:49.821Z,10.92
2022-10-13T06:29:47.157Z,10.93
2022-10-13T06:30:46.157Z,10.94
2022-10-13T06:31:46.098Z,10.97
2022-10-13T06:32:46.268Z,10.99
2022-10-13T06:33:46.081Z,10.98
2022-10-13T06:34:46.199Z,10.98
2022-10-13T06:35:46.086Z,11.00
2022-10-13T06:36:46.128Z,11.01
2022-10-13T06:37:46.018Z,11.02
2022-10-13T06:38:46.168Z,11.02
2022-10-13T06:39:45.997Z,11.04
2022-10-13T06:40:46.098Z,11.08
2022-10-13T06:41:45.998Z,11.12
2022-10-13T06:42:47.179Z,11.15
2022-10-13T06:43:45.942Z,11.18
2022-10-13T06:44:45.974Z,11.20
2022-10-13T06:45:45.919Z,11.21
2022-10-13T06:46:47.045Z,11.20
2022-10-13T06:47:45.917Z,11.20
2022-10-13T06:48:46.057Z,11.21
2022-10-13T06:49:45.886Z,11.26
2022-10-13T06:50:46.370Z,11.31
2022-10-13T06:51:45.898Z,11.34
2022-10-13T06:52:46.017Z,11.38
2022-10-13T06:53:45.828Z,11.41
2022-10-13T06:54:47.374Z,11.44
2022-10-13T06:55:50.196Z,11.47
2022-10-13T06:56:46.878Z,11.49
2022-10-13T06:57:45.951Z,11.51
2022-10-13T06:58:45.740Z,11.53
2022-10-13T06:59:45.847Z,11.55
2022-10-13T07:00:45.757Z,11.58
2022-10-13T07:01:45.769Z,11.61
2022-10-13T07:02:45.691Z,11.64
2022-10-13T07:03:45.758Z,11.67
2022-10-13T07:04:45.658Z,11.68
2022-10-13T07:05:45.858Z,11.68
2022-10-13T07:06:45.630Z,11.68
2022-10-13T07:07:46.657Z,11.67
2022-10-13T07:08:45.598Z,11.68
2022-10-13T07:09:45.721Z,11.70
2022-10-13T07:10:45.569Z,11.74
2022-10-13T07:11:45.774Z,11.76
2022-10-13T07:12:45.558Z,11.78
2022-10-13T07:13:46.883Z,11.81
2022-10-13T07:14:45.529Z,11.84
2022-10-13T07:15:45.679Z,11.87
2022-10-13T07:16:45.529Z,11.87
2022-10-13T07:17:45.637Z,11.87
2022-10-13T07:18:45.471Z,11.86
2022-10-13T07:19:46.589Z,11.86
2022-10-13T07:20:45.467Z,11.86
2022-10-13T07:21:45.595Z,11.89
2022-10-13T07:22:45.429Z,11.91
2022-10-13T07:23:45.580Z,11.92
2022-10-13T07:24:45.410Z,11.93
2022-10-13T07:25:45.479Z,11.95
2022-10-13T07:26:45.487Z,11.98
2022-10-13T07:27:45.488Z,12.00
2022-10-13T07:28:45.400Z,12.02
2022-10-13T07:29:45.480Z,12.02
2022-10-13T07:30:45.310Z,12.03
2022-10-13T07:31:46.565Z,12.05
2022-10-13T07:32:45.278Z,12.07
2022-10-13T07:33:45.407Z,12.09
2022-10-13T07:34:45.256Z,12.12
2022-10-13T07:35:45.438Z,12.15
2022-10-13T07:36:45.300Z,12.15
2022-10-13T07:37:46.289Z,12.17
2022-10-13T07:38:45.203Z,12.19
2022-10-13T07:39:45.298Z,12.23
2022-10-13T07:40:45.159Z,12.25
2022-10-13T07:41:48.777Z,12.26
2022-10-13T07:42:46.239Z,12.26
2022-10-13T07:43:45.211Z,12.28
2022-10-13T07:44:45.178Z,12.29
2022-10-13T07:45:45.210Z,12.32
2022-10-13T07:46:45.088Z,12.34
2022-10-13T07:47:47.277Z,12.34
2022-10-13T07:48:45.071Z,12.33
2022-10-13T07:49:45.179Z,12.33
2022-10-13T07:50:45.040Z,12.33
2022-10-13T07:51:45.214Z,12.32
2022-10-13T07:52:45.010Z,12.32
2022-10-13T07:53:45.100Z,12.34
2022-10-13T07:54:45.037Z,12.35
2022-10-13T07:55:45.088Z,12.34
2022-10-13T07:56:44.966Z,12.33
2022-10-13T07:57:45.118Z,12.34
2022-10-13T07:58:44.938Z,12.33
2022-10-13T07:59:49.288Z,12.34
2022-10-13T08:00:44.929Z,12.35
2022-10-13T08:01:45.053Z,12.38
2022-10-13T08:02:44.880Z,12.40
2022-10-13T08:03:48.885Z,12.44
2022-10-13T08:04:45.849Z,12.46
2022-10-13T08:05:49.168Z,12.47
2022-10-13T08:06:44.814Z,12.48
2022-10-13T08:07:44.990Z,12.50
2022-10-13T08:08:44.788Z,12.52
2022-10-13T08:09:44.938Z,12.53
2022-10-13T08:10:44.808Z,12.52
2022-10-13T08:11:45.817Z,12.52
2022-10-13T08:12:44.744Z,12.51
2022-10-13T08:13:44.758Z,12.48
2022-10-13T08:14:44.803Z,12.45
2022-10-13T08:15:44.769Z,12.45
2022-10-13T08:16:46.577Z,12.44
2022-10-13T08:17:44.708Z,12.45
2022-10-13T08:18:44.688Z,12.47
2022-10-13T08:19:44.646Z,12.51
2022-10-13T08:20:44.711Z,12.53
2022-10-13T08:22:00.411Z,12.51
2022-10-13T08:22:45.638Z,12.49
2022-10-13T08:23:44.628Z,12.47
2022-10-13T08:24:44.589Z,12.44
2022-10-13T08:25:44.654Z,12.40
2022-10-13T08:26:44.550Z,12.38
2022-10-13T08:27:50.954Z,12.35
2022-10-13T08:29:02.918Z,12.34
2022-10-13T08:29:45.509Z,12.32
2022-10-13T08:30:44.693Z,12.32
2022-10-13T08:31:44.773Z,12.32
2022-10-13T08:32:44.492Z,12.32
2022-10-13T08:33:44.455Z,12.32
2022-10-13T08:34:44.559Z,12.30
2022-10-13T08:35:44.419Z,12.31
2022-10-13T08:36:44.519Z,12.31
2022-10-13T08:37:44.410Z,12.32
2022-10-13T08:38:44.490Z,12.33
2022-10-13T08:39:44.369Z,12.36
2022-10-13T08:40:44.497Z,12.41
2022-10-13T08:41:44.350Z,12.44
2022-10-13T08:42:44.450Z,12.47
2022-10-13T08:44:13.407Z,12.49
2022-10-13T08:45:45.679Z,12.54
2022-10-13T08:46:44.393Z,12.57
2022-10-13T08:47:44.269Z,12.61
2022-10-13T08:48:44.370Z,12.63
2022-10-13T08:49:44.621Z,12.62
2022-10-13T08:50:45.750Z,12.63
2022-10-13T08:51:44.718Z,12.65
2022-10-13T08:52:44.648Z,12.66
2022-10-13T08:53:44.542Z,12.66
2022-10-13T08:54:44.638Z,12.66
2022-10-13T08:55:44.534Z,12.66
2022-10-13T08:56:44.547Z,12.65
2022-10-13T08:57:44.667Z,12.64
2022-10-13T08:58:44.548Z,12.62
2022-10-13T08:59:44.475Z,12.61
2022-10-13T09:00:44.587Z,12.61
2022-10-13T09:01:44.484Z,12.62
2022-10-13T09:02:44.496Z,12.63
2022-10-13T09:03:44.580Z,12.65
2022-10-13T09:04:46.741Z,12.70
2022-10-13T09:05:44.431Z,12.76
2022-10-13T09:06:45.183Z,12.83
2022-10-13T09:07:44.528Z,12.89
2022-10-13T09:08:44.430Z,12.93
2022-10-13T09:09:44.517Z,12.94
2022-10-13T09:10:44.465Z,12.95
2022-10-13T09:11:44.283Z,12.96
2022-10-13T09:12:44.407Z,12.95
2022-10-13T09:13:44.300Z,12.92
2022-10-13T09:14:44.429Z,12.90
2022-10-13T09:15:44.394Z,12.90
2022-10-13T09:16:44.321Z,12.87
2022-10-13T09:17:44.255Z,12.83
2022-10-13T09:18:46.483Z,12.78
2022-10-13T09:19:44.219Z,12.76
2022-10-13T09:20:44.308Z,12.75
2022-10-13T09:21:44.302Z,12.77
2022-10-13T09:22:44.212Z,12.79
2022-10-13T09:23:44.161Z,12.83
2022-10-13T09:24:44.242Z,12.86
2022-10-13T09:25:44.447Z,12.87
2022-10-13T09:26:45.466Z,12.88
2022-10-13T09:27:44.230Z,12.88
2022-10-13T09:29:05.172Z,12.91
2022-10-13T09:29:44.251Z,12.94
2022-10-13T09:30:44.093Z,12.97
2022-10-13T09:31:44.050Z,13.00
2022-10-13T09:32:44.090Z,13.01
2022-10-13T09:33:44.163Z,13.01
2022-10-13T09:34:45.043Z,12.99
2022-10-13T09:35:44.086Z,12.97
2022-10-13T09:36:45.054Z,12.97
2022-10-13T09:37:50.725Z,12.98
2022-10-13T09:38:45.125Z,12.99
2022-10-13T09:39:44.058Z,13.01
2022-10-13T09:40:44.993Z,13.02
2022-10-13T09:41:43.928Z,13.02
2022-10-13T09:43:04.972Z,13.01
2022-10-13T09:43:43.876Z,13.02
2022-10-13T09:44:44.013Z,13.02
2022-10-13T09:45:43.974Z,13.03
2022-10-13T09:46:43.895Z,13.05
2022-10-13T09:47:43.859Z,13.09
2022-10-13T09:48:43.938Z,13.14
2022-10-13T09:49:43.777Z,13.19
2022-10-13T09:50:43.837Z,13.23
2022-10-13T09:51:43.872Z,13.24
2022-10-13T09:52:43.852Z,13.28
2022-10-13T09:53:43.452Z,13.32
2022-10-13T09:54:43.452Z,13.35
2022-10-13T09:55:43.344Z,13.36
2022-10-13T09:56:43.360Z,13.34
2022-10-13T09:57:43.350Z,13.32
2022-10-13T09:59:43.290Z,13.36
2022-10-13T10:00:44.318Z,13.38
2022-10-13T10:01:43.271Z,13.36
2022-10-13T10:02:43.300Z,13.33
2022-10-13T10:03:43.377Z,13.31
2022-10-13T10:04:43.651Z,13.28
2022-10-13T10:05:43.243Z,13.28
2022-10-13T10:06:43.232Z,13.29
2022-10-13T10:07:43.195Z,13.31
2022-10-13T10:09:02.301Z,13.33
2022-10-13T10:09:44.183Z,13.35
2022-10-13T10:10:43.261Z,13.37
2022-10-13T10:11:43.137Z,13.38
2022-10-13T10:12:43.244Z,13.41
2022-10-13T10:13:43.101Z,13.45
2022-10-13T10:14:43.254Z,13.49
2022-10-13T10:15:43.113Z,13.54
2022-10-13T10:16:43.093Z,13.58
2022-10-13T10:17:43.041Z,13.61
2022-10-13T10:18:43.483Z,13.65
2022-10-13T10:19:43.013Z,13.69
2022-10-13T10:20:43.489Z,13.73
2022-10-13T10:21:43.023Z,13.75
2022-10-13T10:22:43.084Z,13.77
2022-10-13T10:23:42.977Z,13.77
2022-10-13T10:24:43.284Z,13.76
2022-10-13T10:25:42.963Z,13.78
2022-10-13T10:26:42.963Z,13.81
2022-10-13T10:27:43.913Z,13.82
2022-10-13T10:28:43.026Z,13.84
2022-10-13T10:29:42.891Z,13.86
2022-10-13T10:31:03.982Z,13.89
2022-10-13T10:31:42.879Z,13.92
2022-10-13T10:32:43.093Z,13.96
2022-10-13T10:33:42.852Z,14.01
2022-10-13T10:34:42.922Z,14.03
2022-10-13T10:35:42.803Z,14.04
2022-10-13T10:37:03.922Z,14.06
2022-10-13T10:37:42.803Z,14.05
2022-10-13T10:38:42.842Z,14.02
2022-10-13T10:39:42.782Z,13.99
2022-10-13T10:40:42.762Z,13.96
2022-10-13T10:41:42.742Z,13.95
2022-10-13T10:42:42.774Z,13.94
2022-10-13T10:43:42.702Z,13.94
2022-10-13T10:44:42.833Z,13.95
2022-10-13T10:45:42.705Z,13.96
2022-10-13T10:46:42.803Z,13.95
2022-10-13T10:47:42.653Z,13.94
2022-10-13T10:48:42.935Z,13.94
2022-10-13T10:49:42.623Z,13.93
2022-10-13T10:50:42.633Z,13.94
2022-10-13T10:51:42.625Z,13.93
2022-10-13T10:52:42.645Z,13.92
2022-10-13T10:53:42.583Z,13.90
2022-10-13T10:54:46.704Z,13.92
2022-10-13T10:55:43.542Z,13.95
2022-10-13T10:56:42.718Z,13.97
2022-10-13T10:57:43.499Z,13.99
2022-10-13T10:58:43.060Z,14.02
2022-10-13T10:59:49.276Z,14.06
2022-10-13T11:00:45.303Z,14.11
2022-10-13T11:01:43.772Z,14.15
2022-10-13T11:02:42.977Z,14.16
2022-10-13T11:03:46.022Z,14.16
2022-10-13T11:04:42.432Z,14.13
2022-10-13T11:05:42.525Z,14.13
2022-10-13T11:06:42.929Z,14.14
2022-10-13T11:07:44.474Z,14.14
2022-10-13T11:08:43.193Z,14.16
2022-10-13T11:09:44.642Z,14.15
2022-10-13T11:10:43.750Z,14.16
2022-10-13T11:11:43.361Z,14.16
2022-10-13T11:12:43.520Z,14.14
2022-10-13T11:13:42.393Z,14.12
2022-10-13T11:14:42.434Z,14.11
2022-10-13T11:15:42.384Z,14.12
2022-10-13T11:16:42.283Z,14.11
2022-10-13T11:17:42.375Z,14.10
2022-10-13T11:18:42.240Z,14.08
2022-10-13T11:19:43.328Z,14.08
2022-10-13T11:20:42.213Z,14.07
2022-10-13T11:21:42.287Z,14.06
2022-10-13T11:22:42.190Z,14.04
2022-10-13T11:23:42.272Z,14.02
2022-10-13T11:24:42.153Z,14.02
2022-10-13T11:25:42.303Z,14.01
2022-10-13T11:26:42.132Z,14.01
2022-10-13T11:27:42.283Z,14.01
2022-10-13T11:28:42.115Z,14.03
2022-10-13T11:29:42.304Z,14.06
2022-10-13T11:30:42.065Z,14.10
2022-10-13T11:31:42.213Z,14.13
2022-10-13T11:32:42.044Z,14.15
2022-10-13T11:33:42.194Z,14.17
2022-10-13T11:34:42.023Z,14.19
2022-10-13T11:35:42.360Z,14.22
2022-10-13T11:36:42.004Z,14.24
2022-10-13T11:37:42.133Z,14.24
2022-10-13T11:38:41.965Z,14.23
2022-10-13T11:39:42.843Z,14.22
2022-10-13T11:40:41.946Z,14.23
2022-10-13T11:41:41.986Z,14.24
2022-10-13T11:42:41.937Z,14.26
2022-10-13T11:43:42.025Z,14.27
2022-10-13T11:44:41.915Z,14.28
2022-10-13T11:45:43.035Z,14.28
2022-10-13T11:46:41.875Z,14.30
2022-10-13T11:47:41.997Z,14.34
2022-10-13T11:48:41.839Z,14.38
2022-10-13T11:49:42.029Z,14.42
2022-10-13T11:50:41.812Z,14.46
2022-10-13T11:51:45.087Z,14.48
2022-10-13T11:52:41.796Z,14.50
2022-10-13T11:53:41.896Z,14.52
2022-10-13T11:54:41.759Z,14.55
2022-10-13T11:55:41.842Z,14.56
2022-10-13T11:56:44.893Z,14.54
2022-10-13T11:57:42.747Z,14.54
2022-10-13T11:58:42.858Z,14.52
2022-10-13T11:59:41.714Z,14.52
2022-10-13T12:00:41.776Z,14.54
2022-10-13T12:01:41.659Z,14.57
2022-10-13T12:02:43.950Z,14.61
2022-10-13T12:03:41.666Z,14.63
2022-10-13T12:04:46.528Z,14.64
2022-10-13T12:05:42.636Z,14.63
2022-10-13T12:06:41.685Z,14.63
2022-10-13T12:07:41.590Z,14.63
2022-10-13T12:08:41.729Z,14.64
2022-10-13T12:09:41.587Z,14.65
2022-10-13T12:10:41.648Z,14.67
2022-10-13T12:11:41.546Z,14.68
2022-10-13T12:12:41.716Z,14.69
2022-10-13T12:13:41.518Z,14.69
2022-10-13T12:14:42.547Z,14.71
2022-10-13T12:15:41.511Z,14.74
2022-10-13T12:16:41.561Z,14.76
2022-10-13T12:17:41.460Z,14.77
2022-10-13T12:18:42.627Z,14.78
2022-10-13T12:19:41.438Z,14.80
2022-10-13T12:20:41.528Z,14.85
2022-10-13T12:21:41.426Z,14.88
2022-10-13T12:22:41.466Z,14.89
2022-10-13T12:23:41.378Z,14.88
2022-10-13T12:24:41.497Z,14.87
2022-10-13T12:25:41.348Z,14.87
2022-10-13T12:26:41.437Z,14.86
2022-10-13T12:27:41.352Z,14.86
2022-10-13T12:28:41.492Z,14.86
2022-10-13T12:29:41.308Z,14.87
2022-10-13T12:30:41.510Z,14.88
2022-10-13T12:31:41.378Z,14.90
2022-10-13T12:32:42.368Z,14.92
2022-10-13T12:33:41.288Z,14.91
2022-10-13T12:34:42.298Z,14.90
2022-10-13T12:35:41.219Z,14.89
2022-10-13T12:36:41.396Z,14.88
2022-10-13T12:37:41.200Z,14.90
2022-10-13T12:38:42.369Z,14.92
2022-10-13T12:39:41.208Z,14.95
2022-10-13T12:40:41.279Z,14.98
2022-10-13T12:41:41.148Z,15.01
2022-10-13T12:42:41.219Z,15.05
2022-10-13T12:43:41.119Z,15.10
2022-10-13T12:44:41.249Z,15.15
2022-10-13T12:45:41.112Z,15.21
2022-10-13T12:46:41.198Z,15.25
2022-10-13T12:47:41.061Z,15.26
2022-10-13T12:48:42.251Z,15.27
2022-10-13T12:49:41.039Z,15.28
2022-10-13T12:50:43.160Z,15.29
2022-10-13T12:51:41.028Z,15.28
2022-10-13T12:52:41.097Z,15.28
2022-10-13T12:53:40.979Z,15.30
2022-10-13T12:54:41.131Z,15.31
2022-10-13T12:55:40.949Z,15.31
2022-10-13T12:56:43.159Z,15.32
2022-10-13T12:57:40.947Z,15.34
2022-10-13T12:58:41.102Z,15.37
2022-10-13T12:59:41.048Z,15.42
2022-10-13T13:00:41.013Z,15.47
2022-10-13T13:01:40.871Z,15.52